LBSF Airport Information

Runway Information
Runway 09 Length 9186 ft width 147 ft
Elevation 1739 ft Threshold 0 ft Heading 95
Runway 27 Length 9186 ft Width 147 ft
Elevation 1742 ft Threshold 0 ft Heading 275
Airport Frequencies
Type APP Name APP Frequency 123.7 MHZ
Type ATIS Name ATIS Frequency 124.05 MHZ
Type TWR Name TWR Frequency 118.1 MHZ
Airport Navaids
Type NDB Name Bozhourishte Frequency 312 KHZ
Type NDB Name Sofia Frequency 375 KHZ
Type NDB Name Sofia Frequency 335 KHZ
Type NDB Name Sofia Frequency 529 KHZ
Type VOR-DME Name Sofia Frequency 112600 KHZ
Type NDB Name Sofia Frequency 350 KHZ
Airport Weather Information & NOTAM
ADDS - METARS form results

(1957 UTC 16 July 2018)
 
METAR text: LBSF 161930Z 32002KT CAVOK 22/14 Q1013 NOSIG
Conditions at: LBSF (SOFIA , BG) observed 1930 UTC 16 July 2018
Temperature: 22.0°C (72°F)
Dewpoint: 14.0°C (57°F) [RH = 60%]
Pressure (altimeter): 29.91 inches Hg (1013.0 mb)
Winds: from the NW (320 degrees) at 2 MPH (2 knots; 1.0 m/s)
Visibility: 6 or more miles (10+ km)
Ceiling: ceiling and visibility are OK
Clouds: unknown
Weather: no significant weather observed at this time

METAR text: LBSF 161900Z 28002KT CAVOK 22/13 Q1013 NOSIG
Conditions at: LBSF (SOFIA , BG) observed 1900 UTC 16 July 2018
Temperature: 22.0°C (72°F)
Dewpoint: 13.0°C (55°F) [RH = 57%]
Pressure (altimeter): 29.91 inches Hg (1013.0 mb)
Winds: from the W (280 degrees) at 2 MPH (2 knots; 1.0 m/s)
Visibility: 6 or more miles (10+ km)
Ceiling: ceiling and visibility are OK
Clouds: unknown
Weather: no significant weather observed at this time